sensor_id;sensor_type;location;lat;lon;timestamp;pressure;altitude;pressure_sealevel;temperature;humidity
49457;BME280;35352;51.480;-0.862;2023-02-28T00:01:13;102841.24;;;5.24;100.00
49457;BME280;35352;51.480;-0.862;2023-02-28T00:03:42;102843.38;;;4.92;100.00
49457;BME280;35352;51.480;-0.862;2023-02-28T00:06:10;102847.28;;;4.38;100.00
49457;BME280;35352;51.480;-0.862;2023-02-28T00:08:38;102850.43;;;4.95;100.00
49457;BME280;35352;51.480;-0.862;2023-02-28T00:11:15;102854.22;;;5.23;100.00
49457;BME280;35352;51.480;-0.862;2023-02-28T00:13:44;102852.04;;;4.72;100.00
49457;BME280;35352;51.480;-0.862;2023-02-28T00:16:14;102851.17;;;5.14;100.00
49457;BME280;35352;51.480;-0.862;2023-02-28T00:18:42;102852.03;;;4.61;100.00
49457;BME280;35352;51.480;-0.862;2023-02-28T00:21:14;102850.70;;;4.01;100.00
49457;BME280;35352;51.480;-0.862;2023-02-28T00:23:41;102854.33;;;4.56;100.00
49457;BME280;35352;51.480;-0.862;2023-02-28T00:26:09;102853.23;;;4.64;100.00
49457;BME280;35352;51.480;-0.862;2023-02-28T00:28:36;102856.75;;;4.94;100.00
49457;BME280;35352;51.480;-0.862;2023-02-28T00:31:13;102856.58;;;4.53;100.00
49457;BME280;35352;51.480;-0.862;2023-02-28T00:33:40;102857.38;;;4.63;100.00
49457;BME280;35352;51.480;-0.862;2023-02-28T00:36:09;102859.99;;;4.69;100.00
49457;BME280;35352;51.480;-0.862;2023-02-28T00:38:38;102853.00;;;4.30;100.00
49457;BME280;35352;51.480;-0.862;2023-02-28T00:41:13;102856.14;;;4.29;100.00
49457;BME280;35352;51.480;-0.862;2023-02-28T00:43:40;102858.97;;;4.16;100.00
49457;BME280;35352;51.480;-0.862;2023-02-28T00:46:07;102855.88;;;3.97;100.00
49457;BME280;35352;51.480;-0.862;2023-02-28T00:48:35;102855.37;;;3.56;100.00
49457;BME280;35352;51.480;-0.862;2023-02-28T00:51:13;102852.09;;;3.23;100.00
49457;BME280;35352;51.480;-0.862;2023-02-28T00:53:40;102857.27;;;3.51;100.00
49457;BME280;35352;51.480;-0.862;2023-02-28T00:56:07;102861.13;;;3.24;100.00
49457;BME280;35352;51.480;-0.862;2023-02-28T00:58:35;102859.78;;;3.31;100.00
49457;BME280;35352;51.480;-0.862;2023-02-28T01:01:18;102862.75;;;3.71;100.00
49457;BME280;35352;51.480;-0.862;2023-02-28T01:03:46;102861.59;;;3.78;100.00
49457;BME280;35352;51.480;-0.862;2023-02-28T01:06:13;102867.47;;;3.26;100.00
49457;BME280;35352;51.480;-0.862;2023-02-28T01:08:40;102868.46;;;3.83;100.00
49457;BME280;35352;51.480;-0.862;2023-02-28T01:11:15;102870.75;;;3.73;100.00
49457;BME280;35352;51.480;-0.862;2023-02-28T01:13:43;102870.36;;;3.55;100.00
49457;BME280;35352;51.480;-0.862;2023-02-28T01:16:12;102872.11;;;3.92;100.00
49457;BME280;35352;51.480;-0.862;2023-02-28T01:18:39;102874.15;;;3.55;100.00
49457;BME280;35352;51.480;-0.862;2023-02-28T01:21:15;102880.73;;;3.87;100.00
49457;BME280;35352;51.480;-0.862;2023-02-28T01:23:43;102878.77;;;3.82;100.00
49457;BME280;35352;51.480;-0.862;2023-02-28T01:26:13;102878.23;;;2.70;100.00
49457;BME280;35352;51.480;-0.862;2023-02-28T01:28:42;102880.45;;;3.45;100.00
49457;BME280;35352;51.480;-0.862;2023-02-28T01:31:13;102874.96;;;3.39;100.00
49457;BME280;35352;51.480;-0.862;2023-02-28T01:33:41;102872.37;;;3.99;100.00
49457;BME280;35352;51.480;-0.862;2023-02-28T01:36:11;102875.22;;;3.64;100.00
49457;BME280;35352;51.480;-0.862;2023-02-28T01:38:41;102874.91;;;2.67;100.00
49457;BME280;35352;51.480;-0.862;2023-02-28T01:41:17;102866.81;;;2.55;100.00
49457;BME280;35352;51.480;-0.862;2023-02-28T01:43:56;102865.67;;;3.02;100.00
49457;BME280;35352;51.480;-0.862;2023-02-28T01:46:23;102862.53;;;3.40;100.00
49457;BME280;35352;51.480;-0.862;2023-02-28T01:48:57;102862.40;;;3.50;100.00
49457;BME280;35352;51.480;-0.862;2023-02-28T01:51:32;102863.53;;;3.64;100.00
49457;BME280;35352;51.480;-0.862;2023-02-28T01:54:07;102861.34;;;3.46;100.00
49457;BME280;35352;51.480;-0.862;2023-02-28T01:56:36;102858.76;;;3.88;100.00
49457;BME280;35352;51.480;-0.862;2023-02-28T01:59:04;102854.66;;;3.53;100.00
49457;BME280;35352;51.480;-0.862;2023-02-28T02:01:31;102851.51;;;3.06;100.00
49457;BME280;35352;51.480;-0.862;2023-02-28T02:04:02;102857.47;;;2.68;100.00
49457;BME280;35352;51.480;-0.862;2023-02-28T02:06:34;102856.13;;;2.51;100.00
49457;BME280;35352;51.480;-0.862;2023-02-28T02:09:03;102858.19;;;3.28;100.00
49457;BME280;35352;51.480;-0.862;2023-02-28T02:11:31;102864.01;;;3.69;100.00
49457;BME280;35352;51.480;-0.862;2023-02-28T02:14:26;102862.84;;;3.57;100.00
49457;BME280;35352;51.480;-0.862;2023-02-28T02:17:10;102859.85;;;3.36;100.00
49457;BME280;35352;51.480;-0.862;2023-02-28T02:22:12;102851.85;;;3.08;100.00
49457;BME280;35352;51.480;-0.862;2023-02-28T02:22:49;102853.66;;;3.70;100.00
49457;BME280;35352;51.480;-0.862;2023-02-28T02:25:28;102852.64;;;3.39;100.00
49457;BME280;35352;51.480;-0.862;2023-02-28T02:28:29;102846.38;;;4.09;100.00
49457;BME280;35352;51.480;-0.862;2023-02-28T02:32:39;102849.89;;;4.05;100.00
49457;BME280;35352;51.480;-0.862;2023-02-28T02:35:15;102852.26;;;4.39;100.00
49457;BME280;35352;51.480;-0.862;2023-02-28T02:37:52;102851.90;;;4.39;100.00
49457;BME280;35352;51.480;-0.862;2023-02-28T02:41:16;102855.56;;;3.62;100.00
49457;BME280;35352;51.480;-0.862;2023-02-28T02:43:51;102848.42;;;4.12;100.00
49457;BME280;35352;51.480;-0.862;2023-02-28T02:46:23;102850.84;;;3.91;100.00
49457;BME280;35352;51.480;-0.862;2023-02-28T02:48:56;102854.13;;;3.80;100.00
49457;BME280;35352;51.480;-0.862;2023-02-28T02:51:28;102856.93;;;4.06;100.00
49457;BME280;35352;51.480;-0.862;2023-02-28T02:54:03;102855.59;;;3.34;100.00
49457;BME280;35352;51.480;-0.862;2023-02-28T02:56:33;102855.63;;;3.96;100.00
49457;BME280;35352;51.480;-0.862;2023-02-28T02:59:06;102858.82;;;3.61;100.00
49457;BME280;35352;51.480;-0.862;2023-02-28T03:01:38;102856.78;;;3.48;100.00
49457;BME280;35352;51.480;-0.862;2023-02-28T03:04:10;102853.00;;;3.24;100.00
49457;BME280;35352;51.480;-0.862;2023-02-28T03:06:38;102852.98;;;2.60;100.00
49457;BME280;35352;51.480;-0.862;2023-02-28T03:09:05;102847.64;;;2.90;100.00
49457;BME280;35352;51.480;-0.862;2023-02-28T03:11:37;102848.66;;;3.24;100.00
49457;BME280;35352;51.480;-0.862;2023-02-28T03:14:17;102849.28;;;3.61;100.00
49457;BME280;35352;51.480;-0.862;2023-02-28T03:17:48;102845.46;;;2.91;100.00
49457;BME280;35352;51.480;-0.862;2023-02-28T03:21:18;102850.64;;;2.96;100.00
49457;BME280;35352;51.480;-0.862;2023-02-28T03:23:56;102844.63;;;2.62;100.00
49457;BME280;35352;51.480;-0.862;2023-02-28T03:26:27;102842.23;;;2.98;100.00
49457;BME280;35352;51.480;-0.862;2023-02-28T03:29:01;102838.24;;;2.56;100.00
49457;BME280;35352;51.480;-0.862;2023-02-28T03:31:32;102836.99;;;2.49;100.00
49457;BME280;35352;51.480;-0.862;2023-02-28T03:34:08;102838.17;;;2.86;100.00
49457;BME280;35352;51.480;-0.862;2023-02-28T03:36:39;102839.67;;;3.01;100.00
49457;BME280;35352;51.480;-0.862;2023-02-28T03:39:10;102836.28;;;3.65;100.00
49457;BME280;35352;51.480;-0.862;2023-02-28T03:41:45;102837.01;;;2.32;100.00
49457;BME280;35352;51.480;-0.862;2023-02-28T03:44:17;102835.63;;;3.10;100.00
49457;BME280;35352;51.480;-0.862;2023-02-28T03:46:52;102842.25;;;2.06;100.00
49457;BME280;35352;51.480;-0.862;2023-02-28T03:49:25;102838.92;;;2.99;100.00
49457;BME280;35352;51.480;-0.862;2023-02-28T03:51:58;102843.18;;;2.48;100.00
49457;BME280;35352;51.480;-0.862;2023-02-28T03:54:31;102847.96;;;2.38;100.00
49457;BME280;35352;51.480;-0.862;2023-02-28T03:57:04;102847.01;;;2.27;100.00
49457;BME280;35352;51.480;-0.862;2023-02-28T03:59:37;102850.88;;;2.82;100.00
49457;BME280;35352;51.480;-0.862;2023-02-28T04:02:08;102852.70;;;3.23;100.00
49457;BME280;35352;51.480;-0.862;2023-02-28T04:04:36;102849.72;;;2.79;100.00
49457;BME280;35352;51.480;-0.862;2023-02-28T04:07:06;102849.77;;;2.08;100.00
49457;BME280;35352;51.480;-0.862;2023-02-28T04:09:34;102853.26;;;2.76;100.00
49457;BME280;35352;51.480;-0.862;2023-02-28T04:12:01;102859.23;;;3.36;100.00
49457;BME280;35352;51.480;-0.862;2023-02-28T04:14:28;102857.11;;;3.16;100.00
49457;BME280;35352;51.480;-0.862;2023-02-28T04:16:56;102854.34;;;2.85;100.00
49457;BME280;35352;51.480;-0.862;2023-02-28T04:19:23;102849.46;;;2.71;100.00
49457;BME280;35352;51.480;-0.862;2023-02-28T04:21:52;102854.84;;;3.67;100.00
49457;BME280;35352;51.480;-0.862;2023-02-28T04:24:21;102857.66;;;3.39;100.00
49457;BME280;35352;51.480;-0.862;2023-02-28T04:26:50;102859.19;;;3.35;100.00
49457;BME280;35352;51.480;-0.862;2023-02-28T04:29:20;102863.84;;;3.69;100.00
49457;BME280;35352;51.480;-0.862;2023-02-28T04:31:48;102862.48;;;3.52;100.00
49457;BME280;35352;51.480;-0.862;2023-02-28T04:34:16;102866.23;;;3.48;100.00
49457;BME280;35352;51.480;-0.862;2023-02-28T04:36:45;102868.70;;;3.43;100.00
49457;BME280;35352;51.480;-0.862;2023-02-28T04:39:13;102869.39;;;3.49;100.00
49457;BME280;35352;51.480;-0.862;2023-02-28T04:41:40;102876.25;;;3.41;100.00
49457;BME280;35352;51.480;-0.862;2023-02-28T04:44:07;102873.29;;;3.07;100.00
49457;BME280;35352;51.480;-0.862;2023-02-28T04:46:35;102872.97;;;3.09;100.00
49457;BME280;35352;51.480;-0.862;2023-02-28T04:49:02;102871.63;;;3.02;100.00
49457;BME280;35352;51.480;-0.862;2023-02-28T04:51:29;102871.89;;;2.95;100.00
49457;BME280;35352;51.480;-0.862;2023-02-28T04:53:58;102878.72;;;3.45;100.00
49457;BME280;35352;51.480;-0.862;2023-02-28T04:56:25;102878.13;;;3.14;100.00
49457;BME280;35352;51.480;-0.862;2023-02-28T04:58:52;102880.29;;;2.75;100.00
49457;BME280;35352;51.480;-0.862;2023-02-28T05:01:22;102877.76;;;2.87;100.00
49457;BME280;35352;51.480;-0.862;2023-02-28T05:03:51;102874.96;;;2.81;100.00
49457;BME280;35352;51.480;-0.862;2023-02-28T05:06:20;102875.97;;;3.12;100.00
49457;BME280;35352;51.480;-0.862;2023-02-28T05:08:48;102884.66;;;3.56;100.00
49457;BME280;35352;51.480;-0.862;2023-02-28T05:11:17;102885.41;;;3.51;100.00
49457;BME280;35352;51.480;-0.862;2023-02-28T05:13:45;102884.14;;;3.65;100.00
49457;BME280;35352;51.480;-0.862;2023-02-28T05:16:13;102886.58;;;3.40;100.00
49457;BME280;35352;51.480;-0.862;2023-02-28T05:18:46;102892.53;;;3.74;100.00
49457;BME280;35352;51.480;-0.862;2023-02-28T05:21:25;102894.02;;;3.78;100.00
49457;BME280;35352;51.480;-0.862;2023-02-28T05:23:53;102896.72;;;4.41;100.00
49457;BME280;35352;51.480;-0.862;2023-02-28T05:26:22;102899.58;;;4.05;100.00
49457;BME280;35352;51.480;-0.862;2023-02-28T05:28:49;102904.05;;;3.71;100.00
49457;BME280;35352;51.480;-0.862;2023-02-28T05:31:16;102901.10;;;3.82;100.00
49457;BME280;35352;51.480;-0.862;2023-02-28T05:33:44;102902.21;;;3.98;100.00
49457;BME280;35352;51.480;-0.862;2023-02-28T05:36:11;102905.63;;;4.63;100.00
49457;BME280;35352;51.480;-0.862;2023-02-28T05:38:39;102898.43;;;4.79;100.00
49457;BME280;35352;51.480;-0.862;2023-02-28T05:41:13;102900.99;;;4.48;100.00
49457;BME280;35352;51.480;-0.862;2023-02-28T05:43:41;102901.46;;;4.72;100.00
49457;BME280;35352;51.480;-0.862;2023-02-28T05:46:09;102902.33;;;4.54;100.00
49457;BME280;35352;51.480;-0.862;2023-02-28T05:48:39;102903.82;;;5.20;100.00
49457;BME280;35352;51.480;-0.862;2023-02-28T05:51:13;102901.23;;;5.40;100.00
49457;BME280;35352;51.480;-0.862;2023-02-28T05:53:40;102902.41;;;4.81;100.00
49457;BME280;35352;51.480;-0.862;2023-02-28T05:56:08;102904.03;;;5.31;100.00
49457;BME280;35352;51.480;-0.862;2023-02-28T05:58:35;102899.41;;;5.26;100.00
49457;BME280;35352;51.480;-0.862;2023-02-28T06:01:30;102898.96;;;5.21;100.00
49457;BME280;35352;51.480;-0.862;2023-02-28T06:03:58;102901.61;;;5.23;100.00
49457;BME280;35352;51.480;-0.862;2023-02-28T06:06:26;102903.84;;;5.21;100.00
49457;BME280;35352;51.480;-0.862;2023-02-28T06:08:53;102905.78;;;5.36;100.00
49457;BME280;35352;51.480;-0.862;2023-02-28T06:11:21;102905.41;;;5.62;100.00
49457;BME280;35352;51.480;-0.862;2023-02-28T06:13:48;102907.75;;;5.14;100.00
49457;BME280;35352;51.480;-0.862;2023-02-28T06:16:15;102908.38;;;4.28;100.00
49457;BME280;35352;51.480;-0.862;2023-02-28T06:18:43;102908.86;;;4.79;100.00
49457;BME280;35352;51.480;-0.862;2023-02-28T06:21:13;102914.09;;;4.75;100.00
49457;BME280;35352;51.480;-0.862;2023-02-28T06:23:40;102920.72;;;4.45;100.00
49457;BME280;35352;51.480;-0.862;2023-02-28T06:26:07;102918.00;;;4.49;100.00
49457;BME280;35352;51.480;-0.862;2023-02-28T06:28:34;102918.60;;;4.47;100.00
49457;BME280;35352;51.480;-0.862;2023-02-28T06:31:17;102922.02;;;5.32;100.00
49457;BME280;35352;51.480;-0.862;2023-02-28T06:33:45;102922.13;;;4.74;100.00
49457;BME280;35352;51.480;-0.862;2023-02-28T06:36:15;102918.67;;;5.37;100.00
49457;BME280;35352;51.480;-0.862;2023-02-28T06:38:43;102916.65;;;5.28;100.00
49457;BME280;35352;51.480;-0.862;2023-02-28T06:41:13;102920.38;;;5.39;100.00
49457;BME280;35352;51.480;-0.862;2023-02-28T06:43:42;102919.80;;;5.46;100.00
49457;BME280;35352;51.480;-0.862;2023-02-28T06:46:12;102920.09;;;5.05;100.00
49457;BME280;35352;51.480;-0.862;2023-02-28T06:48:40;102920.01;;;5.10;100.00
49457;BME280;35352;51.480;-0.862;2023-02-28T06:51:15;102922.11;;;5.03;100.00
49457;BME280;35352;51.480;-0.862;2023-02-28T06:53:42;102922.52;;;4.23;100.00
49457;BME280;35352;51.480;-0.862;2023-02-28T06:56:15;102916.17;;;4.52;100.00
49457;BME280;35352;51.480;-0.862;2023-02-28T06:58:48;102917.10;;;4.23;100.00
49457;BME280;35352;51.480;-0.862;2023-02-28T07:01:14;102916.94;;;4.09;100.00
49457;BME280;35352;51.480;-0.862;2023-02-28T07:03:41;102915.95;;;5.14;100.00
49457;BME280;35352;51.480;-0.862;2023-02-28T07:06:09;102918.87;;;5.13;100.00
49457;BME280;35352;51.480;-0.862;2023-02-28T07:08:37;102914.51;;;4.72;100.00
49457;BME280;35352;51.480;-0.862;2023-02-28T07:11:13;102918.45;;;4.66;100.00
49457;BME280;35352;51.480;-0.862;2023-02-28T07:13:40;102919.83;;;4.39;100.00
49457;BME280;35352;51.480;-0.862;2023-02-28T07:16:10;102920.85;;;4.47;100.00
49457;BME280;35352;51.480;-0.862;2023-02-28T07:18:38;102920.81;;;4.33;100.00
49457;BME280;35352;51.480;-0.862;2023-02-28T07:21:14;102924.71;;;4.34;100.00
49457;BME280;35352;51.480;-0.862;2023-02-28T07:23:42;102925.96;;;4.03;100.00
49457;BME280;35352;51.480;-0.862;2023-02-28T07:26:12;102928.45;;;2.97;100.00
49457;BME280;35352;51.480;-0.862;2023-02-28T07:28:40;102929.44;;;3.67;100.00
49457;BME280;35352;51.480;-0.862;2023-02-28T07:31:14;102928.31;;;4.55;100.00
49457;BME280;35352;51.480;-0.862;2023-02-28T07:33:42;102930.22;;;4.47;100.00
49457;BME280;35352;51.480;-0.862;2023-02-28T07:36:11;102930.64;;;3.76;100.00
49457;BME280;35352;51.480;-0.862;2023-02-28T07:38:38;102930.84;;;4.61;100.00
49457;BME280;35352;51.480;-0.862;2023-02-28T07:41:13;102926.13;;;4.90;100.00
49457;BME280;35352;51.480;-0.862;2023-02-28T07:43:41;102927.28;;;4.72;100.00
49457;BME280;35352;51.480;-0.862;2023-02-28T07:46:11;102927.90;;;4.72;100.00
49457;BME280;35352;51.480;-0.862;2023-02-28T07:48:39;102929.72;;;4.49;100.00
49457;BME280;35352;51.480;-0.862;2023-02-28T07:51:13;102927.16;;;4.95;100.00
49457;BME280;35352;51.480;-0.862;2023-02-28T07:53:41;102933.60;;;3.72;100.00
49457;BME280;35352;51.480;-0.862;2023-02-28T07:56:08;102934.23;;;4.38;100.00
49457;BME280;35352;51.480;-0.862;2023-02-28T07:58:36;102939.08;;;4.97;100.00
49457;BME280;35352;51.480;-0.862;2023-02-28T08:01:13;102940.97;;;5.79;100.00
49457;BME280;35352;51.480;-0.862;2023-02-28T08:03:40;102940.32;;;5.79;100.00
49457;BME280;35352;51.480;-0.862;2023-02-28T08:06:16;102939.36;;;5.81;100.00
49457;BME280;35352;51.480;-0.862;2023-02-28T08:08:44;102940.85;;;4.29;100.00
49457;BME280;35352;51.480;-0.862;2023-02-28T08:11:13;102938.93;;;4.82;100.00
49457;BME280;35352;51.480;-0.862;2023-02-28T08:13:41;102937.85;;;5.77;100.00
49457;BME280;35352;51.480;-0.862;2023-02-28T08:16:09;102934.69;;;5.21;100.00
49457;BME280;35352;51.480;-0.862;2023-02-28T08:18:37;102927.55;;;5.06;100.00
49457;BME280;35352;51.480;-0.862;2023-02-28T08:21:13;102925.76;;;4.71;100.00
49457;BME280;35352;51.480;-0.862;2023-02-28T08:23:40;102928.06;;;4.85;100.00
49457;BME280;35352;51.480;-0.862;2023-02-28T08:26:08;102924.11;;;5.13;100.00
49457;BME280;35352;51.480;-0.862;2023-02-28T08:28:36;102926.98;;;4.18;100.00
49457;BME280;35352;51.480;-0.862;2023-02-28T08:31:15;102928.89;;;4.09;100.00
49457;BME280;35352;51.480;-0.862;2023-02-28T08:33:44;102929.61;;;4.23;100.00
49457;BME280;35352;51.480;-0.862;2023-02-28T08:36:12;102928.66;;;4.93;100.00
49457;BME280;35352;51.480;-0.862;2023-02-28T08:38:39;102935.36;;;5.61;100.00
49457;BME280;35352;51.480;-0.862;2023-02-28T08:41:13;102935.01;;;5.74;100.00
49457;BME280;35352;51.480;-0.862;2023-02-28T08:43:41;102934.36;;;5.30;100.00
49457;BME280;35352;51.480;-0.862;2023-02-28T08:46:11;102933.36;;;5.46;100.00
49457;BME280;35352;51.480;-0.862;2023-02-28T08:48:39;102934.23;;;5.65;100.00
49457;BME280;35352;51.480;-0.862;2023-02-28T08:51:16;102933.36;;;5.40;100.00
49457;BME280;35352;51.480;-0.862;2023-02-28T08:53:46;102934.90;;;5.49;100.00
49457;BME280;35352;51.480;-0.862;2023-02-28T08:56:15;102936.46;;;6.01;100.00
49457;BME280;35352;51.480;-0.862;2023-02-28T08:58:44;102932.40;;;5.14;100.00
49457;BME280;35352;51.480;-0.862;2023-02-28T09:01:15;102930.94;;;4.94;100.00
49457;BME280;35352;51.480;-0.862;2023-02-28T09:03:43;102932.62;;;5.73;100.00
49457;BME280;35352;51.480;-0.862;2023-02-28T09:06:11;102928.82;;;4.92;100.00
49457;BME280;35352;51.480;-0.862;2023-02-28T09:08:40;102929.04;;;4.72;100.00
49457;BME280;35352;51.480;-0.862;2023-02-28T09:11:13;102924.99;;;5.20;100.00
49457;BME280;35352;51.480;-0.862;2023-02-28T09:13:41;102927.85;;;5.52;100.00
49457;BME280;35352;51.480;-0.862;2023-02-28T09:16:12;102921.80;;;5.02;100.00
49457;BME280;35352;51.480;-0.862;2023-02-28T09:18:41;102919.22;;;5.23;100.00
49457;BME280;35352;51.480;-0.862;2023-02-28T09:21:16;102918.57;;;4.89;100.00
49457;BME280;35352;51.480;-0.862;2023-02-28T09:23:45;102919.80;;;5.05;100.00
49457;BME280;35352;51.480;-0.862;2023-02-28T09:26:15;102923.70;;;5.53;100.00
49457;BME280;35352;51.480;-0.862;2023-02-28T09:28:42;102923.06;;;5.25;100.00
49457;BME280;35352;51.480;-0.862;2023-02-28T09:31:15;102919.77;;;5.44;100.00
49457;BME280;35352;51.480;-0.862;2023-02-28T09:33:42;102925.20;;;5.75;100.00
49457;BME280;35352;51.480;-0.862;2023-02-28T09:36:10;102919.94;;;5.44;100.00
49457;BME280;35352;51.480;-0.862;2023-02-28T09:38:37;102927.34;;;5.98;100.00
49457;BME280;35352;51.480;-0.862;2023-02-28T09:41:15;102920.16;;;5.63;100.00
49457;BME280;35352;51.480;-0.862;2023-02-28T09:43:46;102924.22;;;5.07;100.00
49457;BME280;35352;51.480;-0.862;2023-02-28T09:46:25;102919.31;;;4.54;100.00
49457;BME280;35352;51.480;-0.862;2023-02-28T09:48:54;102918.66;;;5.08;100.00
49457;BME280;35352;51.480;-0.862;2023-02-28T09:51:34;102920.18;;;5.14;100.00
49457;BME280;35352;51.480;-0.862;2023-02-28T09:54:04;102920.46;;;5.80;100.00
49457;BME280;35352;51.480;-0.862;2023-02-28T09:56:36;102915.84;;;5.62;100.00
49457;BME280;35352;51.480;-0.862;2023-02-28T09:59:11;102920.87;;;5.50;100.00
49457;BME280;35352;51.480;-0.862;2023-02-28T10:01:45;102920.79;;;5.70;100.00
49457;BME280;35352;51.480;-0.862;2023-02-28T10:04:33;102920.45;;;5.93;100.00
49457;BME280;35352;51.480;-0.862;2023-02-28T10:07:07;102925.01;;;5.34;100.00
49457;BME280;35352;51.480;-0.862;2023-02-28T10:09:39;102917.82;;;5.23;100.00
49457;BME280;35352;51.480;-0.862;2023-02-28T10:12:08;102918.97;;;5.48;100.00
49457;BME280;35352;51.480;-0.862;2023-02-28T10:14:38;102917.91;;;5.60;100.00
49457;BME280;35352;51.480;-0.862;2023-02-28T10:17:12;102917.01;;;4.97;100.00
49457;BME280;35352;51.480;-0.862;2023-02-28T10:19:46;102914.86;;;5.20;100.00
49457;BME280;35352;51.480;-0.862;2023-02-28T10:22:23;102919.43;;;5.01;100.00
49457;BME280;35352;51.480;-0.862;2023-02-28T10:24:53;102914.40;;;4.93;100.00
49457;BME280;35352;51.480;-0.862;2023-02-28T10:27:23;102916.99;;;5.35;100.00
49457;BME280;35352;51.480;-0.862;2023-02-28T10:29:51;102919.36;;;5.72;100.00
49457;BME280;35352;51.480;-0.862;2023-02-28T10:32:21;102919.91;;;5.68;100.00
49457;BME280;35352;51.480;-0.862;2023-02-28T10:34:51;102921.56;;;6.02;100.00
49457;BME280;35352;51.480;-0.862;2023-02-28T10:37:22;102915.19;;;5.73;100.00
49457;BME280;35352;51.480;-0.862;2023-02-28T10:39:49;102910.08;;;6.57;100.00
49457;BME280;35352;51.480;-0.862;2023-02-28T10:42:22;102905.65;;;6.76;100.00
49457;BME280;35352;51.480;-0.862;2023-02-28T10:44:49;102900.52;;;7.21;100.00
49457;BME280;35352;51.480;-0.862;2023-02-28T10:47:18;102906.41;;;6.16;100.00
49457;BME280;35352;51.480;-0.862;2023-02-28T10:49:47;102904.96;;;6.05;100.00
49457;BME280;35352;51.480;-0.862;2023-02-28T10:52:35;102899.69;;;6.28;100.00
49457;BME280;35352;51.480;-0.862;2023-02-28T10:55:22;102908.20;;;6.16;100.00
49457;BME280;35352;51.480;-0.862;2023-02-28T10:57:50;102900.59;;;6.43;100.00
49457;BME280;35352;51.480;-0.862;2023-02-28T11:01:16;102898.76;;;5.02;100.00
49457;BME280;35352;51.480;-0.862;2023-02-28T11:03:43;102900.14;;;5.67;100.00
49457;BME280;35352;51.480;-0.862;2023-02-28T11:06:17;102899.37;;;5.99;100.00
49457;BME280;35352;51.480;-0.862;2023-02-28T11:08:47;102897.22;;;5.85;100.00
49457;BME280;35352;51.480;-0.862;2023-02-28T11:11:14;102893.38;;;5.84;100.00
49457;BME280;35352;51.480;-0.862;2023-02-28T11:13:41;102892.76;;;6.04;100.00
49457;BME280;35352;51.480;-0.862;2023-02-28T11:16:11;102893.10;;;5.88;100.00
49457;BME280;35352;51.480;-0.862;2023-02-28T11:18:44;102891.43;;;5.35;100.00
49457;BME280;35352;51.480;-0.862;2023-02-28T11:21:18;102893.30;;;5.85;100.00
49457;BME280;35352;51.480;-0.862;2023-02-28T11:23:49;102884.31;;;6.59;100.00
49457;BME280;35352;51.480;-0.862;2023-02-28T11:26:37;102883.36;;;6.67;100.00
49457;BME280;35352;51.480;-0.862;2023-02-28T11:29:12;102879.29;;;6.86;100.00
49457;BME280;35352;51.480;-0.862;2023-02-28T11:31:43;102882.74;;;5.74;100.00
49457;BME280;35352;51.480;-0.862;2023-02-28T11:34:27;102874.40;;;5.46;100.00
49457;BME280;35352;51.480;-0.862;2023-02-28T11:36:57;102876.54;;;5.73;100.00
49457;BME280;35352;51.480;-0.862;2023-02-28T11:39:25;102876.53;;;5.99;100.00
49457;BME280;35352;51.480;-0.862;2023-02-28T11:42:06;102876.16;;;6.14;100.00
49457;BME280;35352;51.480;-0.862;2023-02-28T11:44:50;102872.36;;;5.79;100.00
49457;BME280;35352;51.480;-0.862;2023-02-28T11:47:25;102869.29;;;6.17;100.00
49457;BME280;35352;51.480;-0.862;2023-02-28T11:50:07;102864.15;;;5.36;100.00
49457;BME280;35352;51.480;-0.862;2023-02-28T11:52:48;102858.92;;;5.98;100.00
49457;BME280;35352;51.480;-0.862;2023-02-28T11:55:24;102853.16;;;6.07;100.00
49457;BME280;35352;51.480;-0.862;2023-02-28T11:58:03;102850.86;;;5.86;100.00
49457;BME280;35352;51.480;-0.862;2023-02-28T12:01:24;102844.81;;;5.96;100.00
49457;BME280;35352;51.480;-0.862;2023-02-28T12:04:04;102843.22;;;6.32;100.00
49457;BME280;35352;51.480;-0.862;2023-02-28T12:06:41;102844.17;;;6.43;100.00
49457;BME280;35352;51.480;-0.862;2023-02-28T12:09:28;102844.73;;;6.45;100.00
49457;BME280;35352;51.480;-0.862;2023-02-28T12:12:04;102838.51;;;6.47;100.00
49457;BME280;35352;51.480;-0.862;2023-02-28T12:17:19;102839.32;;;5.88;100.00
49457;BME280;35352;51.480;-0.862;2023-02-28T12:17:33;102835.07;;;6.02;100.00
49457;BME280;35352;51.480;-0.862;2023-02-28T12:21:21;102822.33;;;6.28;100.00
49457;BME280;35352;51.480;-0.862;2023-02-28T12:24:00;102819.10;;;6.12;100.00
49457;BME280;35352;51.480;-0.862;2023-02-28T12:26:36;102806.93;;;6.67;100.00
49457;BME280;35352;51.480;-0.862;2023-02-28T12:29:13;102803.12;;;6.32;100.00
49457;BME280;35352;51.480;-0.862;2023-02-28T12:31:47;102799.15;;;5.18;100.00
49457;BME280;35352;51.480;-0.862;2023-02-28T12:34:20;102790.77;;;5.65;100.00
49457;BME280;35352;51.480;-0.862;2023-02-28T12:36:51;102772.47;;;5.19;100.00
49457;BME280;35352;51.480;-0.862;2023-02-28T12:39:25;102750.66;;;4.96;100.00
49457;BME280;35352;51.480;-0.862;2023-02-28T12:41:56;102731.47;;;4.99;100.00
49457;BME280;35352;51.480;-0.862;2023-02-28T12:44:32;102741.16;;;5.43;100.00
49457;BME280;35352;51.480;-0.862;2023-02-28T12:47:04;102755.69;;;5.89;100.00
49457;BME280;35352;51.480;-0.862;2023-02-28T12:49:36;102770.86;;;5.74;100.00
49457;BME280;35352;51.480;-0.862;2023-02-28T12:52:08;102770.53;;;5.93;100.00
49457;BME280;35352;51.480;-0.862;2023-02-28T12:54:44;102768.74;;;6.60;100.00
49457;BME280;35352;51.480;-0.862;2023-02-28T12:57:18;102762.61;;;6.46;100.00
49457;BME280;35352;51.480;-0.862;2023-02-28T12:59:51;102751.79;;;6.69;100.00
49457;BME280;35352;51.480;-0.862;2023-02-28T13:02:41;102740.54;;;6.42;100.00
49457;BME280;35352;51.480;-0.862;2023-02-28T13:05:25;102738.37;;;5.61;100.00
49457;BME280;35352;51.480;-0.862;2023-02-28T13:08:22;102738.53;;;6.65;100.00
49457;BME280;35352;51.480;-0.862;2023-02-28T13:11:26;102740.50;;;6.61;100.00